createdAt,value
2018-10-06T00:00:56.173Z,6.93
2018-10-06T00:03:01.741Z,7.33
2018-10-06T00:05:08.508Z,6.90
2018-10-06T00:07:19.750Z,7.10
2018-10-06T00:09:25.370Z,7.80
2018-10-06T00:11:30.850Z,7.40
2018-10-06T00:13:38.862Z,8.97
2018-10-06T00:15:44.472Z,8.33
2018-10-06T00:17:49.964Z,7.90
2018-10-06T00:19:55.731Z,8.17
2018-10-06T00:22:01.473Z,7.03
2018-10-06T00:24:06.708Z,7.27
2018-10-06T00:26:12.552Z,7.60
2018-10-06T00:28:18.422Z,7.10
2018-10-06T00:30:23.827Z,7.10
2018-10-06T00:32:29.776Z,7.70
2018-10-06T00:34:35.629Z,6.93
2018-10-06T00:36:41.478Z,6.80
2018-10-06T00:38:46.944Z,6.50
2018-10-06T00:40:52.972Z,7.47
2018-10-06T00:42:58.709Z,6.27
2018-10-06T00:45:04.438Z,7.30
2018-10-06T00:47:10.087Z,6.13
2018-10-06T00:49:15.537Z,6.70
2018-10-06T00:51:21.144Z,6.63
2018-10-06T00:53:27.027Z,7.33
2018-10-06T00:55:32.663Z,7.33
2018-10-06T00:57:38.381Z,6.80
2018-10-06T00:59:44.356Z,7.50
2018-10-06T01:01:49.545Z,7.87
2018-10-06T01:03:55.014Z,7.37
2018-10-06T01:06:01.292Z,7.00
2018-10-06T01:08:06.939Z,7.43
2018-10-06T01:10:12.664Z,8.07
2018-10-06T01:12:18.654Z,8.80
2018-10-06T01:14:25.328Z,7.30
2018-10-06T01:16:31.008Z,7.17
2018-10-06T01:18:36.497Z,7.90
2018-10-06T01:20:44.486Z,8.57
2018-10-06T01:22:50.172Z,7.97
2018-10-06T01:24:56.607Z,7.30
2018-10-06T01:27:02.952Z,7.00
2018-10-06T01:29:08.819Z,7.50
2018-10-06T01:31:15.231Z,6.17
2018-10-06T01:33:21.497Z,6.43
2018-10-06T01:35:27.661Z,5.30
2018-10-06T01:37:34.061Z,6.50
2018-10-06T01:39:41.641Z,4.83
2018-10-06T01:41:47.216Z,5.63
2018-10-06T01:43:53.104Z,5.03
2018-10-06T01:45:58.943Z,5.07
2018-10-06T01:48:05.238Z,5.30
2018-10-06T01:50:10.348Z,4.80
2018-10-06T01:52:15.626Z,5.10
2018-10-06T01:54:21.093Z,4.83
2018-10-06T01:56:27.146Z,4.50
2018-10-06T01:58:32.778Z,4.23
2018-10-06T02:00:38.444Z,4.17
2018-10-06T02:02:44.282Z,4.60
2018-10-06T02:04:49.645Z,4.13
2018-10-06T02:06:55.169Z,4.17
2018-10-06T02:09:01.240Z,4.73
2018-10-06T02:11:07.328Z,3.97
2018-10-06T02:13:12.593Z,4.03
2018-10-06T02:15:18.520Z,4.67
2018-10-06T02:17:24.760Z,4.10
2018-10-06T02:19:30.455Z,4.17
2018-10-06T02:21:40.207Z,3.80
2018-10-06T02:23:46.496Z,3.63
2018-10-06T02:25:52.929Z,4.30
2018-10-06T02:27:59.389Z,3.70
2018-10-06T02:30:05.596Z,4.57
2018-10-06T02:32:11.204Z,3.37
2018-10-06T02:34:17.238Z,3.80
2018-10-06T02:36:22.703Z,4.03
2018-10-06T02:38:29.527Z,3.40
2018-10-06T02:40:34.764Z,3.90
2018-10-06T02:42:40.409Z,4.00
2018-10-06T02:44:46.272Z,3.27
2018-10-06T02:46:51.917Z,4.20
2018-10-06T02:48:58.037Z,3.27
2018-10-06T02:51:03.384Z,4.07
2018-10-06T02:53:08.789Z,4.17
2018-10-06T02:55:14.510Z,3.00
2018-10-06T02:57:20.421Z,3.83
2018-10-06T02:59:25.783Z,4.07
2018-10-06T03:01:31.536Z,4.00
2018-10-06T03:03:37.103Z,3.17
2018-10-06T03:07:55.678Z,3.33
2018-10-06T03:10:01.577Z,2.60
2018-10-06T03:12:07.650Z,3.30
2018-10-06T03:14:13.596Z,3.00
2018-10-06T03:16:19.100Z,2.87
2018-10-06T03:18:24.448Z,3.20
2018-10-06T03:20:30.976Z,3.33
2018-10-06T03:22:36.797Z,2.93
2018-10-06T03:24:42.242Z,3.10
2018-10-06T03:26:47.825Z,2.80
2018-10-06T03:28:53.050Z,3.40
2018-10-06T03:30:58.932Z,3.27
2018-10-06T03:33:04.539Z,2.73
2018-10-06T03:35:10.393Z,3.60
2018-10-06T03:37:16.437Z,3.00
2018-10-06T03:39:22.132Z,2.97
2018-10-06T03:41:28.262Z,2.80
2018-10-06T03:43:33.791Z,2.37
2018-10-06T03:45:39.332Z,3.40
2018-10-06T03:47:45.791Z,2.67
2018-10-06T03:49:51.737Z,2.10
2018-10-06T03:51:57.508Z,2.97
2018-10-06T03:54:02.832Z,2.97
2018-10-06T03:56:08.583Z,2.80
2018-10-06T03:58:14.502Z,2.50
2018-10-06T04:00:20.284Z,2.87
2018-10-06T04:02:26.018Z,2.50
2018-10-06T04:04:31.736Z,2.20
2018-10-06T04:06:36.945Z,2.40
2018-10-06T04:08:42.680Z,2.17
2018-10-06T04:10:48.538Z,2.37
2018-10-06T04:12:54.232Z,3.00
2018-10-06T04:14:59.681Z,3.50
2018-10-06T04:17:05.503Z,3.20
2018-10-06T04:19:11.492Z,2.60
2018-10-06T04:21:16.930Z,2.60
2018-10-06T04:23:22.406Z,2.80
2018-10-06T04:25:27.984Z,2.43
2018-10-06T04:27:34.387Z,2.60
2018-10-06T04:29:40.617Z,2.97
2018-10-06T04:31:45.981Z,2.33
2018-10-06T04:33:51.841Z,2.60
2018-10-06T04:35:57.565Z,2.47
2018-10-06T04:38:02.961Z,2.30
2018-10-06T04:40:08.489Z,2.40
2018-10-06T04:42:14.092Z,2.90
2018-10-06T04:44:19.480Z,2.03
2018-10-06T04:46:24.911Z,2.43
2018-10-06T04:48:30.031Z,1.90
2018-10-06T04:50:35.499Z,2.27
2018-10-06T04:52:40.856Z,2.43
2018-10-06T04:54:46.176Z,2.40
2018-10-06T04:56:51.731Z,2.77
2018-10-06T04:58:57.125Z,2.93
2018-10-06T05:01:02.889Z,2.20
2018-10-06T05:03:08.049Z,2.60
2018-10-06T05:05:14.014Z,2.40
2018-10-06T05:07:19.594Z,2.17
2018-10-06T05:09:24.939Z,2.60
2018-10-06T05:11:30.832Z,2.60
2018-10-06T05:13:36.334Z,2.33
2018-10-06T05:15:41.796Z,2.50
2018-10-06T05:17:48.994Z,2.67
2018-10-06T05:19:54.527Z,2.30
2018-10-06T05:22:00.472Z,2.10
2018-10-06T05:24:05.955Z,2.37
2018-10-06T05:26:11.582Z,2.03
2018-10-06T05:28:17.252Z,2.63
2018-10-06T05:30:22.540Z,2.80
2018-10-06T05:32:28.004Z,2.30
2018-10-06T05:34:33.451Z,2.70
2018-10-06T05:36:39.213Z,2.90
2018-10-06T05:38:44.727Z,2.83
2018-10-06T05:40:50.239Z,2.87
2018-10-06T05:42:55.714Z,2.50
2018-10-06T05:45:01.243Z,2.60
2018-10-06T05:47:06.954Z,3.10
2018-10-06T05:49:12.819Z,3.37
2018-10-06T05:51:18.008Z,3.17
2018-10-06T05:53:23.388Z,2.80
2018-10-06T05:55:28.676Z,3.30
2018-10-06T05:57:34.051Z,3.47
2018-10-06T05:59:39.202Z,3.00
2018-10-06T06:01:44.707Z,3.30
2018-10-06T06:03:50.109Z,4.10
2018-10-06T06:05:55.386Z,2.90
2018-10-06T06:08:00.871Z,3.60
2018-10-06T06:10:06.444Z,3.70
2018-10-06T06:12:11.935Z,3.40
2018-10-06T06:14:17.508Z,3.93
2018-10-06T06:16:23.052Z,3.97
2018-10-06T06:18:28.410Z,3.93
2018-10-06T06:20:34.155Z,3.77
2018-10-06T06:22:39.790Z,3.50
2018-10-06T06:24:45.407Z,3.70
2018-10-06T06:26:50.844Z,3.50
2018-10-06T06:28:56.336Z,3.60
2018-10-06T06:31:01.861Z,4.30
2018-10-06T06:33:07.395Z,4.00
2018-10-06T06:35:13.137Z,3.90
2018-10-06T06:37:18.846Z,3.77
2018-10-06T06:39:24.239Z,4.03
2018-10-06T06:41:29.799Z,4.80
2018-10-06T06:43:35.426Z,4.30
2018-10-06T06:45:41.168Z,4.23
2018-10-06T06:47:46.894Z,3.63
2018-10-06T06:49:52.355Z,4.33
2018-10-06T06:51:58.287Z,4.37
2018-10-06T06:54:03.703Z,4.33
2018-10-06T06:56:09.195Z,4.77
2018-10-06T06:58:14.436Z,3.80
2018-10-06T07:00:20.414Z,4.03
2018-10-06T07:02:26.540Z,5.40
2018-10-06T07:04:31.988Z,4.40
2018-10-06T07:06:37.403Z,4.40
2018-10-06T07:08:43.073Z,4.80
2018-10-06T07:10:48.341Z,4.50
2018-10-06T07:12:53.624Z,4.10
2018-10-06T07:14:59.129Z,4.37
2018-10-06T07:17:05.051Z,4.67
2018-10-06T07:19:10.954Z,4.87
2018-10-06T07:21:16.460Z,5.27
2018-10-06T07:23:22.800Z,4.93
2018-10-06T07:25:28.027Z,4.97
2018-10-06T07:27:33.725Z,5.10
2018-10-06T07:29:38.642Z,4.17
2018-10-06T07:31:43.735Z,5.30
2018-10-06T07:33:49.158Z,3.87
2018-10-06T07:35:54.629Z,4.77
2018-10-06T07:37:59.825Z,4.33
2018-10-06T07:40:05.308Z,5.40
2018-10-06T07:42:10.826Z,4.27
2018-10-06T07:44:16.196Z,4.90
2018-10-06T07:46:21.745Z,4.30
2018-10-06T07:48:27.758Z,5.53
2018-10-06T07:50:33.409Z,5.10
2018-10-06T07:52:38.772Z,5.50
2018-10-06T07:54:44.307Z,7.47
2018-10-06T07:56:49.653Z,5.77
2018-10-06T07:58:55.171Z,6.77
2018-10-06T08:01:00.279Z,6.37
2018-10-06T08:03:06.121Z,7.30
2018-10-06T08:05:11.651Z,6.30
2018-10-06T08:07:17.273Z,6.00
2018-10-06T08:09:22.849Z,5.60
2018-10-06T08:11:28.079Z,5.70
2018-10-06T08:13:33.776Z,6.00
2018-10-06T08:15:39.436Z,5.80
2018-10-06T08:17:44.914Z,5.30
2018-10-06T08:19:50.615Z,5.57
2018-10-06T08:21:55.942Z,5.90
2018-10-06T08:24:01.417Z,5.97
2018-10-06T08:26:07.508Z,5.50
2018-10-06T08:28:12.963Z,6.33
2018-10-06T08:30:18.490Z,5.73
2018-10-06T08:32:24.060Z,5.70
2018-10-06T08:34:29.890Z,5.10
2018-10-06T08:36:35.175Z,5.17
2018-10-06T08:38:40.580Z,5.40
2018-10-06T08:40:45.676Z,5.10
2018-10-06T08:42:50.902Z,5.20
2018-10-06T08:44:56.109Z,5.07
2018-10-06T08:47:01.293Z,4.90
2018-10-06T08:49:06.475Z,4.87
2018-10-06T08:51:11.746Z,4.97
2018-10-06T08:53:17.184Z,5.23
2018-10-06T08:55:22.758Z,5.47
2018-10-06T08:57:30.300Z,5.27
2018-10-06T08:59:36.068Z,5.00
2018-10-06T09:01:41.460Z,5.50
2018-10-06T09:03:46.903Z,5.47
2018-10-06T09:05:51.976Z,5.33
2018-10-06T09:07:57.166Z,5.80
2018-10-06T09:10:02.418Z,5.40
2018-10-06T09:12:07.686Z,5.10
2018-10-06T09:14:12.869Z,5.03
2018-10-06T09:16:18.333Z,4.97
2018-10-06T09:18:23.061Z,4.90
2018-10-06T09:20:28.052Z,6.20
2018-10-06T09:22:32.974Z,5.20
2018-10-06T09:24:37.752Z,5.57
2018-10-06T09:26:42.623Z,5.03
2018-10-06T09:28:47.706Z,5.00
2018-10-06T09:30:52.706Z,5.10
2018-10-06T09:32:57.997Z,5.30
2018-10-06T09:35:03.038Z,6.23
2018-10-06T09:37:07.722Z,5.83
2018-10-06T09:39:13.063Z,5.50
2018-10-06T09:41:17.938Z,5.20
2018-10-06T09:43:22.625Z,5.53
2018-10-06T09:45:27.523Z,5.53
2018-10-06T09:47:32.647Z,5.10
2018-10-06T09:49:37.812Z,5.43
2018-10-06T09:51:42.756Z,5.03
2018-10-06T09:53:47.816Z,5.70
2018-10-06T09:55:53.040Z,5.60
2018-10-06T09:57:57.908Z,4.97
2018-10-06T10:00:02.792Z,5.80
2018-10-06T10:02:16.745Z,5.87
2018-10-06T10:04:21.980Z,5.07
2018-10-06T10:06:26.798Z,6.17
2018-10-06T10:08:31.916Z,6.57
2018-10-06T10:10:37.030Z,5.37
2018-10-06T10:12:41.880Z,5.33
2018-10-06T10:14:47.122Z,5.50
2018-10-06T10:16:52.111Z,5.57
2018-10-06T10:18:57.353Z,5.50
2018-10-06T10:21:02.546Z,6.20
2018-10-06T10:23:07.311Z,5.80
2018-10-06T10:25:12.361Z,7.40
2018-10-06T10:27:17.275Z,7.50
2018-10-06T10:29:22.521Z,8.40
2018-10-06T10:31:27.875Z,7.13
2018-10-06T10:33:33.112Z,7.27
2018-10-06T10:35:38.007Z,6.50
2018-10-06T10:37:42.864Z,6.77
2018-10-06T10:39:47.977Z,6.93
2018-10-06T10:41:52.882Z,6.83
2018-10-06T10:43:59.332Z,6.67
2018-10-06T10:46:04.530Z,7.20
2018-10-06T10:48:09.765Z,7.63
2018-10-06T10:50:14.804Z,6.70
2018-10-06T10:52:21.221Z,6.83
2018-10-06T10:54:27.928Z,6.07
2018-10-06T10:56:33.006Z,7.07
2018-10-06T10:58:37.826Z,8.03
2018-10-06T11:00:42.591Z,8.23
2018-10-06T11:02:47.874Z,16.17
2018-10-06T11:04:52.866Z,14.43
2018-10-06T11:06:57.712Z,15.80
2018-10-06T11:09:03.919Z,15.20
2018-10-06T11:11:09.007Z,16.03
2018-10-06T11:13:14.532Z,15.40
2018-10-06T11:15:20.282Z,14.30
2018-10-06T11:17:25.994Z,16.00
2018-10-06T11:19:31.417Z,15.57
2018-10-06T11:21:37.255Z,13.27
2018-10-06T11:23:43.111Z,14.47
2018-10-06T11:25:48.833Z,13.73
2018-10-06T11:27:54.872Z,12.80
2018-10-06T11:30:00.886Z,12.20
2018-10-06T11:32:06.312Z,12.70
2018-10-06T11:34:12.194Z,12.37
2018-10-06T11:36:18.464Z,13.10
2018-10-06T11:38:24.366Z,13.07
2018-10-06T11:40:30.119Z,16.00
2018-10-06T11:42:35.765Z,13.40
2018-10-06T11:44:41.096Z,14.77
2018-10-06T11:46:46.874Z,14.13
2018-10-06T11:48:52.809Z,14.40
2018-10-06T11:50:58.799Z,14.30
2018-10-06T11:53:04.832Z,15.80
2018-10-06T11:55:10.636Z,15.87
2018-10-06T11:57:16.409Z,19.17
2018-10-06T11:59:22.140Z,19.73
2018-10-06T12:01:27.697Z,19.07
2018-10-06T12:03:33.018Z,22.13
2018-10-06T12:05:38.552Z,20.93
2018-10-06T12:07:44.153Z,19.93
2018-10-06T12:09:49.125Z,18.40
2018-10-06T12:11:54.573Z,18.80
2018-10-06T12:14:00.204Z,19.73
2018-10-06T12:16:06.044Z,18.87
2018-10-06T12:18:11.910Z,18.93
2018-10-06T12:20:17.702Z,18.13
2018-10-06T12:22:22.969Z,18.00
2018-10-06T12:24:28.416Z,18.03
2018-10-06T12:26:33.860Z,17.63
2018-10-06T12:28:39.266Z,17.77
2018-10-06T12:30:45.193Z,15.93
2018-10-06T12:32:50.790Z,15.40
2018-10-06T12:34:56.288Z,16.10
2018-10-06T12:37:01.836Z,17.07
2018-10-06T12:39:08.229Z,15.00
2018-10-06T12:41:13.882Z,15.63
2018-10-06T12:43:19.841Z,15.10
2018-10-06T12:45:25.529Z,17.27
2018-10-06T12:47:31.498Z,13.57
2018-10-06T12:49:37.431Z,14.53
2018-10-06T12:51:43.797Z,14.43
2018-10-06T12:53:49.366Z,15.33
2018-10-06T12:55:54.945Z,14.70
2018-10-06T12:58:01.085Z,14.70
2018-10-06T13:00:11.875Z,13.70
2018-10-06T13:02:17.920Z,13.90
2018-10-06T13:04:25.333Z,14.07
2018-10-06T13:06:31.230Z,12.70
2018-10-06T13:08:37.870Z,12.83
2018-10-06T13:10:43.869Z,13.40
2018-10-06T13:12:50.849Z,14.00
2018-10-06T13:14:57.008Z,15.07
2018-10-06T13:17:02.963Z,13.83
2018-10-06T13:19:08.895Z,13.63
2018-10-06T13:21:14.723Z,12.90
2018-10-06T13:23:19.873Z,12.43
2018-10-06T13:25:25.547Z,13.80
2018-10-06T13:27:31.642Z,12.40
2018-10-06T13:29:38.476Z,13.53
2018-10-06T13:31:44.242Z,13.50
2018-10-06T13:33:49.785Z,11.60
2018-10-06T13:35:55.519Z,12.30
2018-10-06T13:38:01.165Z,14.10
2018-10-06T13:40:06.832Z,12.10
2018-10-06T13:42:12.150Z,12.63
2018-10-06T13:44:17.916Z,11.90
2018-10-06T13:46:23.573Z,11.93
2018-10-06T13:48:29.769Z,12.30
2018-10-06T13:50:35.312Z,11.83
2018-10-06T13:52:40.769Z,12.33
2018-10-06T13:54:46.662Z,11.17
2018-10-06T13:56:53.339Z,11.83
2018-10-06T13:58:59.385Z,13.80
2018-10-06T14:01:05.241Z,12.67
2018-10-06T14:03:11.254Z,11.97
2018-10-06T14:05:17.569Z,11.37
2018-10-06T14:07:23.218Z,10.73
2018-10-06T14:09:29.146Z,13.63
2018-10-06T14:11:34.407Z,12.07
2018-10-06T14:13:40.031Z,12.13
2018-10-06T14:15:46.551Z,12.43
2018-10-06T14:17:52.134Z,12.33
2018-10-06T14:19:57.522Z,11.90
2018-10-06T14:22:03.511Z,11.90
2018-10-06T14:24:09.395Z,12.70
2018-10-06T14:26:15.071Z,12.73
2018-10-06T14:28:20.757Z,11.80
2018-10-06T14:30:26.268Z,12.47
2018-10-06T14:32:31.999Z,12.80
2018-10-06T14:34:37.702Z,12.43
2018-10-06T14:36:43.554Z,13.50
2018-10-06T14:38:49.349Z,13.23
2018-10-06T14:40:55.398Z,12.17
2018-10-06T14:43:00.993Z,12.80
2018-10-06T14:45:06.775Z,12.37
2018-10-06T14:47:12.540Z,11.80
2018-10-06T14:49:18.020Z,12.10
2018-10-06T14:51:23.303Z,12.20
2018-10-06T14:53:28.897Z,13.13
2018-10-06T14:55:34.653Z,12.17
2018-10-06T14:57:41.689Z,11.93
2018-10-06T14:59:47.710Z,11.50
2018-10-06T15:01:53.132Z,12.27
2018-10-06T15:03:59.015Z,11.73
2018-10-06T15:06:04.670Z,10.83
2018-10-06T15:08:10.202Z,12.20
2018-10-06T15:10:15.982Z,12.10
2018-10-06T15:12:21.647Z,11.30
2018-10-06T15:14:27.067Z,12.77
2018-10-06T15:16:32.987Z,11.47
2018-10-06T15:18:38.573Z,10.80
2018-10-06T15:20:44.094Z,11.40
2018-10-06T15:22:50.007Z,10.53
2018-10-06T15:24:55.356Z,11.53
2018-10-06T15:27:01.112Z,10.70
2018-10-06T15:29:07.358Z,9.93
2018-10-06T15:31:12.648Z,11.00
2018-10-06T15:33:19.094Z,10.80
2018-10-06T15:35:25.181Z,10.20
2018-10-06T15:37:31.232Z,11.07
2018-10-06T15:39:36.707Z,10.33
2018-10-06T15:41:42.525Z,10.90
2018-10-06T15:43:50.760Z,10.97
2018-10-06T15:46:00.196Z,10.50
2018-10-06T15:48:05.917Z,10.30
2018-10-06T15:50:11.677Z,10.80
2018-10-06T15:52:18.194Z,10.97
2018-10-06T15:54:23.521Z,11.87
2018-10-06T15:56:29.442Z,11.90
2018-10-06T15:58:35.229Z,12.47
2018-10-06T16:00:41.456Z,12.90
2018-10-06T16:02:47.100Z,11.23
2018-10-06T16:04:52.918Z,12.77
2018-10-06T16:06:58.504Z,12.13
2018-10-06T16:09:04.422Z,11.97
2018-10-06T16:11:09.966Z,10.07
2018-10-06T16:13:15.845Z,11.40
2018-10-06T16:15:21.360Z,11.37
2018-10-06T16:17:27.181Z,15.90
2018-10-06T16:19:33.019Z,17.97
2018-10-06T16:21:38.845Z,22.73
2018-10-06T16:23:44.496Z,25.20
2018-10-06T16:25:50.212Z,16.97
2018-10-06T16:27:56.183Z,110.60
2018-10-06T16:30:01.552Z,69.50
2018-10-06T16:32:07.674Z,41.00
2018-10-06T16:34:12.914Z,29.13
2018-10-06T16:36:18.362Z,36.77
2018-10-06T16:38:24.461Z,35.53
2018-10-06T16:40:29.593Z,32.30
2018-10-06T16:42:35.208Z,30.90
2018-10-06T16:44:40.891Z,32.87
2018-10-06T16:46:46.224Z,31.40
2018-10-06T16:48:52.172Z,26.87
2018-10-06T16:50:57.870Z,27.73
2018-10-06T16:53:03.582Z,26.67
2018-10-06T16:55:09.192Z,27.37
2018-10-06T16:57:14.523Z,27.60
2018-10-06T16:59:20.623Z,28.63
2018-10-06T17:01:26.521Z,27.80
2018-10-06T17:03:31.792Z,25.73
2018-10-06T17:05:37.693Z,27.27
2018-10-06T17:07:43.706Z,26.17
2018-10-06T17:09:49.894Z,26.10
2018-10-06T17:11:55.585Z,24.67
2018-10-06T17:14:01.148Z,24.10
2018-10-06T17:16:06.358Z,22.30
2018-10-06T17:18:12.064Z,23.00
2018-10-06T17:20:18.289Z,21.80
2018-10-06T17:22:24.210Z,20.43
2018-10-06T17:24:30.330Z,21.90
2018-10-06T17:26:36.428Z,18.43
2018-10-06T17:28:42.070Z,19.87
2018-10-06T17:30:47.992Z,19.93
2018-10-06T17:32:53.809Z,18.87
2018-10-06T17:34:59.358Z,18.43
2018-10-06T17:37:04.944Z,18.03
2018-10-06T17:39:10.889Z,18.20
2018-10-06T17:41:16.212Z,17.60
2018-10-06T17:43:23.465Z,18.30
2018-10-06T17:45:29.862Z,16.83
2018-10-06T17:47:34.887Z,16.93
2018-10-06T17:49:40.606Z,17.20
2018-10-06T17:51:48.254Z,18.07
2018-10-06T17:53:53.881Z,18.40
2018-10-06T17:55:58.991Z,17.63
2018-10-06T17:58:04.763Z,16.93
2018-10-06T18:00:10.488Z,16.63
2018-10-06T18:02:15.890Z,17.70
2018-10-06T18:04:21.654Z,16.50
2018-10-06T18:06:27.392Z,17.10
2018-10-06T18:08:33.037Z,16.47
2018-10-06T18:10:38.890Z,15.43
2018-10-06T18:12:44.697Z,14.00
2018-10-06T18:14:50.507Z,16.57
2018-10-06T18:16:56.256Z,14.43
2018-10-06T18:19:02.010Z,14.83
2018-10-06T18:21:06.994Z,14.07
2018-10-06T18:23:13.061Z,13.07
2018-10-06T18:25:18.996Z,8.97
2018-10-06T18:27:24.335Z,9.00
2018-10-06T18:29:29.930Z,7.50
2018-10-06T18:31:35.421Z,6.80
2018-10-06T18:33:41.096Z,5.87
2018-10-06T18:35:47.533Z,7.17
2018-10-06T18:37:53.311Z,5.40
2018-10-06T18:39:59.439Z,5.23
2018-10-06T18:42:04.834Z,4.37
2018-10-06T18:44:10.445Z,4.37
2018-10-06T18:46:16.096Z,4.90
2018-10-06T18:48:22.181Z,4.70
2018-10-06T18:50:27.780Z,3.50
2018-10-06T18:52:33.617Z,3.37
2018-10-06T18:54:39.292Z,2.83
2018-10-06T18:56:45.347Z,3.30
2018-10-06T18:58:51.221Z,3.70
2018-10-06T19:00:57.160Z,3.77
2018-10-06T19:03:02.966Z,4.20
2018-10-06T19:05:08.813Z,4.40
2018-10-06T19:07:14.559Z,5.17
2018-10-06T19:09:20.114Z,6.00
2018-10-06T19:11:25.759Z,5.63
2018-10-06T19:13:31.211Z,6.37
2018-10-06T19:15:37.276Z,5.80
2018-10-06T19:17:44.863Z,5.40
2018-10-06T19:19:50.873Z,5.33
2018-10-06T19:21:57.124Z,5.80
2018-10-06T19:24:02.842Z,6.07
2018-10-06T19:26:08.297Z,6.63
2018-10-06T19:28:13.929Z,5.90
2018-10-06T19:30:20.526Z,5.43
2018-10-06T19:32:26.486Z,6.20
2018-10-06T19:34:31.987Z,6.17
2018-10-06T19:36:38.173Z,5.60
2018-10-06T19:38:43.490Z,5.90
2018-10-06T19:40:49.269Z,5.40
2018-10-06T19:42:55.303Z,6.30
2018-10-06T19:45:00.956Z,5.90
2018-10-06T19:47:06.201Z,6.33
2018-10-06T19:49:12.726Z,6.30
2018-10-06T19:51:18.482Z,5.70
2018-10-06T19:53:24.081Z,6.20
2018-10-06T19:55:29.713Z,5.70
2018-10-06T19:57:35.249Z,5.90
2018-10-06T19:59:40.769Z,5.90
2018-10-06T20:01:46.602Z,6.63
2018-10-06T20:03:52.193Z,6.40
2018-10-06T20:05:57.645Z,6.43
2018-10-06T20:08:04.621Z,6.63
2018-10-06T20:10:10.595Z,7.10
2018-10-06T20:12:16.424Z,6.23
2018-10-06T20:14:21.501Z,6.80
2018-10-06T20:16:27.224Z,6.27
2018-10-06T20:18:32.908Z,7.17
2018-10-06T20:20:38.402Z,6.40
2018-10-06T20:22:44.636Z,6.63
2018-10-06T20:24:50.564Z,6.70
2018-10-06T20:26:56.076Z,6.67
2018-10-06T20:29:01.964Z,6.70
2018-10-06T20:31:08.529Z,6.10
2018-10-06T20:33:15.074Z,7.20
2018-10-06T20:35:20.287Z,7.00
2018-10-06T20:37:25.942Z,6.43
2018-10-06T20:39:31.728Z,7.10
2018-10-06T20:41:37.084Z,7.03
2018-10-06T20:43:43.283Z,7.57
2018-10-06T20:45:51.893Z,7.10
2018-10-06T20:47:58.857Z,6.20
2018-10-06T20:50:07.224Z,6.17
2018-10-06T20:52:13.138Z,6.90
2018-10-06T20:54:19.007Z,7.30
2018-10-06T20:56:24.684Z,6.70
2018-10-06T20:58:29.950Z,7.30
2018-10-06T21:00:35.635Z,6.80
2018-10-06T21:02:41.264Z,6.60
2018-10-06T21:04:47.412Z,6.50
2018-10-06T21:06:53.185Z,6.77
2018-10-06T21:08:58.949Z,6.67
2018-10-06T21:11:04.493Z,6.40
2018-10-06T21:13:09.845Z,6.70
2018-10-06T21:15:15.370Z,6.23
2018-10-06T21:17:21.334Z,6.57
2018-10-06T21:19:27.201Z,6.87
2018-10-06T21:21:32.799Z,7.97
2018-10-06T21:23:38.384Z,5.97
2018-10-06T21:25:43.933Z,7.20
2018-10-06T21:27:49.132Z,6.17
2018-10-06T21:29:54.853Z,7.03
2018-10-06T21:32:00.290Z,7.20
2018-10-06T21:34:06.547Z,7.00
2018-10-06T21:36:11.925Z,7.23
2018-10-06T21:38:17.527Z,6.70
2018-10-06T21:40:22.875Z,7.10
2018-10-06T21:42:28.550Z,6.37
2018-10-06T21:44:34.141Z,6.90
2018-10-06T21:46:39.532Z,6.43
2018-10-06T21:48:45.065Z,6.50
2018-10-06T21:50:50.976Z,5.93
2018-10-06T21:52:56.985Z,5.60
2018-10-06T21:55:02.927Z,6.10
2018-10-06T21:57:08.564Z,7.40
2018-10-06T21:59:14.252Z,7.10
2018-10-06T22:01:20.402Z,6.57
2018-10-06T22:03:25.789Z,6.43
2018-10-06T22:05:31.223Z,7.00
2018-10-06T22:07:36.919Z,6.37
2018-10-06T22:09:43.003Z,5.87
2018-10-06T22:11:48.657Z,6.53
2018-10-06T22:13:54.660Z,6.03
2018-10-06T22:16:00.317Z,6.33
2018-10-06T22:18:06.220Z,6.67
2018-10-06T22:20:12.394Z,6.10
2018-10-06T22:22:18.313Z,5.83
2018-10-06T22:24:24.516Z,6.30
2018-10-06T22:26:31.994Z,6.40
2018-10-06T22:28:38.246Z,5.93
2018-10-06T22:30:43.694Z,6.53
2018-10-06T22:32:49.590Z,6.37
2018-10-06T22:34:55.945Z,6.03
2018-10-06T22:37:00.928Z,5.60
2018-10-06T22:39:08.288Z,6.00
2018-10-06T22:41:14.782Z,5.70
2018-10-06T22:43:20.878Z,6.30
2018-10-06T22:45:26.647Z,6.50
2018-10-06T22:47:33.948Z,7.00
2018-10-06T22:49:39.985Z,7.57
2018-10-06T22:51:45.629Z,6.77
2018-10-06T22:53:51.275Z,6.03
2018-10-06T22:55:57.373Z,7.80
2018-10-06T22:58:03.312Z,8.33
2018-10-06T23:00:09.194Z,8.50
2018-10-06T23:02:15.346Z,6.63
2018-10-06T23:04:21.792Z,7.80
2018-10-06T23:06:27.748Z,7.00
2018-10-06T23:08:33.201Z,7.07
2018-10-06T23:10:38.812Z,7.53
2018-10-06T23:12:44.398Z,6.90
2018-10-06T23:14:50.686Z,6.70
2018-10-06T23:16:56.724Z,6.97
2018-10-06T23:19:03.003Z,7.20
2018-10-06T23:21:09.110Z,7.23
2018-10-06T23:23:15.507Z,6.97
2018-10-06T23:25:21.529Z,8.00
2018-10-06T23:27:27.780Z,8.43
2018-10-06T23:29:35.562Z,8.47
2018-10-06T23:31:41.637Z,9.17
2018-10-06T23:33:49.469Z,9.20
2018-10-06T23:35:58.542Z,7.90
2018-10-06T23:38:04.607Z,9.57
2018-10-06T23:40:11.192Z,8.73
2018-10-06T23:42:19.295Z,9.57
2018-10-06T23:44:25.464Z,8.93
2018-10-06T23:46:33.397Z,7.90
2018-10-06T23:48:39.802Z,14.50
2018-10-06T23:50:46.232Z,10.73
2018-10-06T23:52:51.765Z,9.40
2018-10-06T23:54:57.695Z,9.10
2018-10-06T23:57:03.242Z,8.03
2018-10-06T23:59:09.172Z,9.33
